createdAt,value
2023-05-21T00:00:19.020Z,20.38
2023-05-21T00:01:19.050Z,21.33
2023-05-21T00:03:19.193Z,21.28
2023-05-21T00:04:19.023Z,20.00
2023-05-21T00:06:19.018Z,19.49
2023-05-21T00:07:19.042Z,18.46
2023-05-21T00:08:19.055Z,18.59
2023-05-21T00:09:19.028Z,18.47
2023-05-21T00:10:19.022Z,18.68
2023-05-21T00:11:19.050Z,19.26
2023-05-21T00:12:19.041Z,17.71
2023-05-21T00:13:19.000Z,19.09
2023-05-21T00:15:19.103Z,18.56
2023-05-21T00:16:19.108Z,19.29
2023-05-21T00:17:19.117Z,20.62
2023-05-21T00:18:19.035Z,21.41
2023-05-21T00:19:19.121Z,20.16
2023-05-21T00:20:19.023Z,20.68
2023-05-21T00:21:19.081Z,19.37
2023-05-21T00:22:19.076Z,18.37
2023-05-21T00:23:19.058Z,19.26
2023-05-21T00:24:19.083Z,18.17
2023-05-21T00:25:19.094Z,17.98
2023-05-21T00:26:19.056Z,17.61
2023-05-21T00:27:19.096Z,18.01
2023-05-21T00:28:19.089Z,18.04
2023-05-21T00:29:19.133Z,17.33
2023-05-21T00:30:19.133Z,18.61
2023-05-21T00:31:19.193Z,18.78
2023-05-21T00:32:19.094Z,18.01
2023-05-21T00:33:19.120Z,19.77
2023-05-21T00:34:19.111Z,18.02
2023-05-21T00:35:19.131Z,18.67
2023-05-21T00:36:19.065Z,18.62
2023-05-21T00:37:19.105Z,18.43
2023-05-21T00:38:19.119Z,18.44
2023-05-21T00:39:19.083Z,18.45
2023-05-21T00:40:19.107Z,17.74
2023-05-21T00:41:19.078Z,17.41
2023-05-21T00:42:19.121Z,17.26
2023-05-21T00:44:19.109Z,18.68
2023-05-21T00:45:19.229Z,18.33
2023-05-21T00:46:19.145Z,18.04
2023-05-21T00:48:19.149Z,19.96
2023-05-21T00:49:19.091Z,18.00
2023-05-21T00:50:19.127Z,17.44
2023-05-21T00:52:19.127Z,18.93
2023-05-21T00:53:19.167Z,17.04
2023-05-21T00:54:19.177Z,17.22
2023-05-21T00:55:19.151Z,18.31
2023-05-21T00:57:19.130Z,18.45
2023-05-21T00:58:19.183Z,19.15
2023-05-21T01:00:19.148Z,16.75
2023-05-21T01:01:19.169Z,16.13
2023-05-21T01:02:19.239Z,16.62
2023-05-21T01:04:19.202Z,16.26
2023-05-21T01:05:19.153Z,15.74
2023-05-21T01:09:19.157Z,16.19
2023-05-21T01:10:19.156Z,16.56
2023-05-21T01:11:19.173Z,16.37
2023-05-21T01:13:19.177Z,16.64
2023-05-21T01:15:19.224Z,18.35
2023-05-21T01:16:19.251Z,18.72
2023-05-21T01:17:19.272Z,18.26
2023-05-21T01:18:19.192Z,17.55
2023-05-21T01:19:19.281Z,16.66
2023-05-21T01:20:19.260Z,17.49
2023-05-21T01:22:19.180Z,16.40
2023-05-21T01:23:19.224Z,16.23
2023-05-21T01:24:19.219Z,16.16
2023-05-21T01:25:19.214Z,17.00
2023-05-21T01:26:19.197Z,16.39
2023-05-21T01:27:19.235Z,18.79
2023-05-21T01:28:19.250Z,17.90
2023-05-21T01:29:19.252Z,18.46
2023-05-21T01:30:19.248Z,15.55
2023-05-21T01:31:19.192Z,16.80
2023-05-21T01:32:19.245Z,17.06
2023-05-21T01:33:19.327Z,18.25
2023-05-21T01:35:19.248Z,18.71
2023-05-21T01:36:19.227Z,17.87
2023-05-21T01:38:19.267Z,18.96
2023-05-21T01:40:19.284Z,17.93
2023-05-21T01:41:19.284Z,17.62
2023-05-21T01:43:19.229Z,18.19
2023-05-21T01:44:19.273Z,19.51
2023-05-21T01:45:19.300Z,19.69
2023-05-21T01:46:19.402Z,17.95
2023-05-21T01:51:19.322Z,18.78
2023-05-21T01:52:19.268Z,18.47
2023-05-21T01:53:19.329Z,19.23
2023-05-21T01:54:19.308Z,17.25
2023-05-21T01:56:19.311Z,19.49
2023-05-21T01:57:19.288Z,19.85
2023-05-21T02:00:19.354Z,19.92
2023-05-21T02:01:19.386Z,19.62
2023-05-21T02:02:19.356Z,19.39
2023-05-21T02:05:19.326Z,19.14
2023-05-21T02:06:19.327Z,17.83
2023-05-21T02:07:19.326Z,18.70
2023-05-21T02:09:19.359Z,18.90
2023-05-21T02:10:19.362Z,18.62
2023-05-21T02:11:19.325Z,18.64
2023-05-21T02:12:19.338Z,18.23
2023-05-21T02:13:19.377Z,17.83
2023-05-21T02:14:19.386Z,18.23
2023-05-21T02:17:19.341Z,17.79
2023-05-21T02:18:19.345Z,18.97
2023-05-21T02:20:19.415Z,18.56
2023-05-21T02:22:19.364Z,19.32
2023-05-21T02:24:19.388Z,19.64
2023-05-21T02:25:19.379Z,20.41
2023-05-21T02:26:19.379Z,18.66
2023-05-21T02:27:19.407Z,20.34
2023-05-21T02:28:19.412Z,20.03
2023-05-21T02:29:19.397Z,19.82
2023-05-21T02:30:19.437Z,18.51
2023-05-21T02:31:19.374Z,21.48
2023-05-21T02:32:19.359Z,20.56
2023-05-21T02:33:19.430Z,20.35
2023-05-21T02:36:19.373Z,21.20
2023-05-21T02:38:19.451Z,20.27
2023-05-21T02:39:19.386Z,19.74
2023-05-21T02:40:19.442Z,19.58
2023-05-21T02:41:19.422Z,19.24
2023-05-21T02:42:19.431Z,22.29
2023-05-21T02:43:19.421Z,20.22
2023-05-21T02:44:19.426Z,21.52
2023-05-21T02:45:19.396Z,20.90
2023-05-21T02:46:19.522Z,21.49
2023-05-21T02:47:19.397Z,20.84
2023-05-21T02:48:19.629Z,22.51
2023-05-21T02:49:19.457Z,21.72
2023-05-21T02:50:19.436Z,22.45
2023-05-21T02:51:19.444Z,21.85
2023-05-21T02:52:19.450Z,21.64
2023-05-21T02:53:19.497Z,22.70
2023-05-21T02:54:19.429Z,21.28
2023-05-21T02:55:19.452Z,21.65
2023-05-21T02:56:19.477Z,23.19
2023-05-21T02:57:19.440Z,23.20
2023-05-21T02:58:19.478Z,22.95
2023-05-21T02:59:19.493Z,24.35
2023-05-21T03:00:19.441Z,23.48
2023-05-21T03:02:19.565Z,22.63
2023-05-21T03:03:19.612Z,22.88
2023-05-21T03:04:19.450Z,23.07
2023-05-21T03:05:19.456Z,23.27
2023-05-21T03:06:19.479Z,22.86
2023-05-21T03:09:19.483Z,22.54
2023-05-21T03:10:19.467Z,23.47
2023-05-21T03:11:19.518Z,22.99
2023-05-21T03:13:19.492Z,24.13
2023-05-21T03:14:19.532Z,24.56
2023-05-21T03:15:19.496Z,23.51
2023-05-21T03:18:19.510Z,23.91
2023-05-21T03:19:19.547Z,23.25
2023-05-21T03:20:19.545Z,21.87
2023-05-21T03:21:19.492Z,25.67
2023-05-21T03:22:19.538Z,23.22
2023-05-21T03:23:19.498Z,23.89
2023-05-21T03:24:19.531Z,24.03
2023-05-21T03:26:19.488Z,24.11
2023-05-21T03:27:19.532Z,24.53
2023-05-21T03:28:19.531Z,25.13
2023-05-21T03:30:19.593Z,24.73
2023-05-21T03:31:19.527Z,24.51
2023-05-21T03:32:19.659Z,23.08
2023-05-21T03:33:19.593Z,22.00
2023-05-21T03:34:19.535Z,24.13
2023-05-21T03:35:19.546Z,23.64
2023-05-21T03:36:19.587Z,22.55
2023-05-21T03:37:19.600Z,21.71
2023-05-21T03:38:19.552Z,23.25
2023-05-21T03:39:19.566Z,22.76
2023-05-21T03:40:19.621Z,22.96
2023-05-21T03:41:19.602Z,22.98
2023-05-21T03:42:19.595Z,23.25
2023-05-21T03:43:19.565Z,23.14
2023-05-21T03:45:19.587Z,22.40
2023-05-21T03:46:19.621Z,21.37
2023-05-21T03:47:19.577Z,20.47
2023-05-21T03:48:19.596Z,20.33
2023-05-21T03:49:19.618Z,22.53
2023-05-21T03:50:19.782Z,21.61
2023-05-21T03:51:19.626Z,21.09
2023-05-21T03:53:19.626Z,22.17
2023-05-21T03:56:19.624Z,22.85
2023-05-21T03:57:19.592Z,21.99
2023-05-21T03:58:19.652Z,20.82
2023-05-21T03:59:19.619Z,22.25
2023-05-21T04:00:19.573Z,21.54
2023-05-21T04:01:19.661Z,21.00
2023-05-21T04:03:19.885Z,22.87
2023-05-21T04:04:19.737Z,21.65
2023-05-21T04:05:19.628Z,22.72
2023-05-21T04:06:19.661Z,23.07
2023-05-21T04:07:19.639Z,21.05
2023-05-21T04:08:19.634Z,22.18
2023-05-21T04:09:19.644Z,21.36
2023-05-21T04:10:19.609Z,22.59
2023-05-21T04:11:19.667Z,22.89
2023-05-21T04:12:19.667Z,22.08
2023-05-21T04:13:19.611Z,21.05
2023-05-21T04:14:19.630Z,21.63
2023-05-21T04:16:19.727Z,21.31
2023-05-21T04:17:19.651Z,22.70
2023-05-21T04:18:19.623Z,23.53
2023-05-21T04:19:19.691Z,21.94
2023-05-21T04:20:19.711Z,23.03
2023-05-21T04:23:19.656Z,21.09
2023-05-21T04:24:19.696Z,21.17
2023-05-21T04:26:19.672Z,21.15
2023-05-21T04:27:19.708Z,22.15
2023-05-21T04:28:19.711Z,21.19
2023-05-21T04:29:19.692Z,21.31
2023-05-21T04:30:19.714Z,21.79
2023-05-21T04:31:19.718Z,20.98
2023-05-21T04:32:19.735Z,20.92
2023-05-21T04:33:19.730Z,21.99
2023-05-21T04:34:19.732Z,21.81
2023-05-21T04:35:19.710Z,22.46
2023-05-21T04:36:19.671Z,22.54
2023-05-21T04:37:19.710Z,22.15
2023-05-21T04:38:19.758Z,22.76
2023-05-21T04:39:19.717Z,22.76
2023-05-21T04:40:19.696Z,21.34
2023-05-21T04:41:19.732Z,22.69
2023-05-21T04:42:19.749Z,23.00
2023-05-21T04:43:19.760Z,21.90
2023-05-21T04:44:19.700Z,22.02
2023-05-21T04:45:19.742Z,21.20
2023-05-21T04:46:19.761Z,21.82
2023-05-21T04:47:19.723Z,21.14
2023-05-21T04:48:19.746Z,22.22
2023-05-21T04:49:19.710Z,21.28
2023-05-21T04:50:19.893Z,21.68
2023-05-21T04:51:19.733Z,21.86
2023-05-21T04:52:19.722Z,21.03
2023-05-21T04:53:19.783Z,20.20
2023-05-21T04:54:19.779Z,23.00
2023-05-21T04:55:19.741Z,21.18
2023-05-21T04:56:19.774Z,20.81
2023-05-21T04:57:19.737Z,20.70
2023-05-21T04:58:19.816Z,22.25
2023-05-21T04:59:19.730Z,21.80
2023-05-21T05:00:19.793Z,20.18
2023-05-21T05:01:19.925Z,21.36
2023-05-21T05:02:19.746Z,21.87
2023-05-21T05:03:19.862Z,21.71
2023-05-21T05:04:19.786Z,20.84
2023-05-21T05:05:19.750Z,19.70
2023-05-21T05:06:19.787Z,19.03
2023-05-21T05:07:19.761Z,19.80
2023-05-21T05:08:19.797Z,20.04
2023-05-21T05:09:19.824Z,21.29
2023-05-21T05:10:19.784Z,20.51
2023-05-21T05:11:19.798Z,19.85
2023-05-21T05:12:19.854Z,20.35
2023-05-21T05:13:19.834Z,20.05
2023-05-21T05:14:19.801Z,19.94
2023-05-21T05:15:19.772Z,20.12
2023-05-21T05:16:19.841Z,18.44
2023-05-21T05:17:19.777Z,18.14
2023-05-21T05:18:19.789Z,19.54
2023-05-21T05:19:19.872Z,19.14
2023-05-21T05:20:19.796Z,19.76
2023-05-21T05:21:19.825Z,19.71
2023-05-21T05:22:19.846Z,19.64
2023-05-21T05:23:19.830Z,20.30
2023-05-21T05:24:19.788Z,19.77
2023-05-21T05:25:19.791Z,20.86
2023-05-21T05:26:19.844Z,20.75
2023-05-21T05:27:19.851Z,21.00
2023-05-21T05:28:19.806Z,21.50
2023-05-21T05:29:19.853Z,20.13
2023-05-21T05:30:19.867Z,20.49
2023-05-21T05:31:19.836Z,19.50
2023-05-21T05:32:19.874Z,19.47
2023-05-21T05:33:19.916Z,20.30
2023-05-21T05:34:19.885Z,19.76
2023-05-21T05:35:19.833Z,19.71
2023-05-21T05:36:19.849Z,19.05
2023-05-21T05:37:19.875Z,19.94
2023-05-21T05:38:19.880Z,20.60
2023-05-21T05:39:19.864Z,19.48
2023-05-21T05:40:19.852Z,19.38
2023-05-21T05:41:19.864Z,20.07
2023-05-21T05:42:19.864Z,18.77
2023-05-21T05:43:19.834Z,19.92
2023-05-21T05:44:19.875Z,19.95
2023-05-21T05:45:19.925Z,21.81
2023-05-21T05:46:19.956Z,19.55
2023-05-21T05:47:19.876Z,19.94
2023-05-21T05:48:19.891Z,22.24
2023-05-21T05:49:19.857Z,21.66
2023-05-21T05:51:19.898Z,20.14
2023-05-21T05:52:19.897Z,19.78
2023-05-21T05:53:19.899Z,19.35
2023-05-21T05:55:19.909Z,19.52
2023-05-21T05:56:19.922Z,20.32
2023-05-21T05:57:19.876Z,19.33
2023-05-21T05:58:19.923Z,19.92
2023-05-21T05:59:19.944Z,19.30
2023-05-21T06:00:19.921Z,21.29
2023-05-21T06:01:19.950Z,20.77
2023-05-21T06:02:19.937Z,20.85
2023-05-21T06:03:20.072Z,21.79
2023-05-21T06:04:19.933Z,19.49
2023-05-21T06:05:19.953Z,20.42
2023-05-21T06:06:20.142Z,20.27
2023-05-21T06:07:19.945Z,20.77
2023-05-21T06:08:19.974Z,19.91
2023-05-21T06:09:19.970Z,20.31
2023-05-21T06:10:19.937Z,18.84
2023-05-21T06:11:19.979Z,18.96
2023-05-21T06:12:19.986Z,18.91
2023-05-21T06:13:19.962Z,19.83
2023-05-21T06:14:19.974Z,19.36
2023-05-21T06:15:19.920Z,19.73
2023-05-21T06:16:19.992Z,20.41
2023-05-21T06:17:19.966Z,20.77
2023-05-21T06:18:19.954Z,19.53
2023-05-21T06:19:20.047Z,19.44
2023-05-21T06:20:19.973Z,19.40
2023-05-21T06:21:20.015Z,19.52
2023-05-21T06:22:19.980Z,18.47
2023-05-21T06:24:20.028Z,19.12
2023-05-21T06:25:20.004Z,20.17
2023-05-21T06:26:19.971Z,19.57
2023-05-21T06:27:19.956Z,20.22
2023-05-21T06:28:19.955Z,19.21
2023-05-21T06:29:20.052Z,19.56
2023-05-21T06:30:20.003Z,20.58
2023-05-21T06:31:19.961Z,21.22
2023-05-21T06:32:20.053Z,20.74
2023-05-21T06:33:20.141Z,19.19
2023-05-21T06:34:20.043Z,20.59
2023-05-21T06:35:20.054Z,18.38
2023-05-21T06:36:20.050Z,18.87
2023-05-21T06:37:19.972Z,19.85
2023-05-21T06:38:20.047Z,18.93
2023-05-21T06:39:20.015Z,18.89
2023-05-21T06:40:20.029Z,19.36
2023-05-21T06:41:20.020Z,20.12
2023-05-21T06:42:20.040Z,19.94
2023-05-21T06:43:20.045Z,18.93
2023-05-21T06:44:20.013Z,18.46
2023-05-21T06:45:20.064Z,19.53
2023-05-21T06:46:20.087Z,19.15
2023-05-21T06:47:20.057Z,19.02
2023-05-21T06:48:20.052Z,19.60
2023-05-21T06:49:20.022Z,18.80
2023-05-21T06:50:20.055Z,19.41
2023-05-21T06:51:20.005Z,19.35
2023-05-21T06:52:20.078Z,20.25
2023-05-21T06:53:20.063Z,19.47
2023-05-21T06:54:20.070Z,18.84
2023-05-21T06:55:20.037Z,17.66
2023-05-21T06:56:20.105Z,18.26
2023-05-21T06:57:20.055Z,18.50
2023-05-21T06:58:20.122Z,17.82
2023-05-21T06:59:20.078Z,18.59
2023-05-21T07:00:20.069Z,19.02
2023-05-21T07:01:20.096Z,18.40
2023-05-21T07:02:20.212Z,19.69
2023-05-21T07:03:20.294Z,17.58
2023-05-21T07:04:20.118Z,18.67
2023-05-21T07:05:20.076Z,18.94
2023-05-21T07:06:20.142Z,17.84
2023-05-21T07:07:20.099Z,18.02
2023-05-21T07:08:20.097Z,17.61
2023-05-21T07:09:20.100Z,17.74
2023-05-21T07:10:20.064Z,16.46
2023-05-21T07:11:20.104Z,16.39
2023-05-21T07:12:20.105Z,17.65
2023-05-21T07:13:20.125Z,17.73
2023-05-21T07:14:20.135Z,18.04
2023-05-21T07:15:20.110Z,17.96
2023-05-21T07:16:20.167Z,18.01
2023-05-21T07:17:20.118Z,16.95
2023-05-21T07:18:20.078Z,18.63
2023-05-21T07:19:20.161Z,18.58
2023-05-21T07:20:20.160Z,17.93
2023-05-21T07:21:20.085Z,18.24
2023-05-21T07:22:20.121Z,16.84
2023-05-21T07:23:20.085Z,19.68
2023-05-21T07:24:20.104Z,16.72
2023-05-21T07:25:20.174Z,17.32
2023-05-21T07:26:20.185Z,17.26
2023-05-21T07:27:25.932Z,17.95
2023-05-21T07:28:20.148Z,16.70
2023-05-21T07:29:20.172Z,17.69
2023-05-21T07:30:20.142Z,17.51
2023-05-21T07:31:20.192Z,16.96
2023-05-21T07:32:20.159Z,16.53
2023-05-21T07:33:20.123Z,16.70
2023-05-21T07:34:20.133Z,17.20
2023-05-21T07:35:20.177Z,17.32
2023-05-21T07:36:20.159Z,17.01
2023-05-21T07:37:20.224Z,16.93
2023-05-21T07:38:20.186Z,16.93
2023-05-21T07:39:20.200Z,16.66
2023-05-21T07:40:20.197Z,17.38
2023-05-21T07:41:20.165Z,15.66
2023-05-21T07:42:20.162Z,17.58
2023-05-21T07:43:20.203Z,16.42
2023-05-21T07:44:20.195Z,18.25
2023-05-21T07:45:20.192Z,17.26
2023-05-21T07:46:20.197Z,16.34
2023-05-21T07:47:20.230Z,16.24
2023-05-21T07:48:20.166Z,16.57
2023-05-21T07:49:20.185Z,15.70
2023-05-21T07:50:20.234Z,15.30
2023-05-21T07:51:20.205Z,17.56
2023-05-21T07:52:20.243Z,16.31
2023-05-21T07:53:20.221Z,16.26
2023-05-21T07:54:20.370Z,15.62
2023-05-21T07:55:20.215Z,17.81
2023-05-21T07:56:20.190Z,17.58
2023-05-21T07:57:20.250Z,18.04
2023-05-21T07:58:20.267Z,17.77
2023-05-21T07:59:20.214Z,17.22
2023-05-21T08:00:20.270Z,17.09
2023-05-21T08:01:20.257Z,17.17
2023-05-21T08:02:20.326Z,17.59
2023-05-21T08:03:20.348Z,15.68
2023-05-21T08:04:20.407Z,16.08
2023-05-21T08:05:20.245Z,16.59
2023-05-21T08:06:20.303Z,16.67
2023-05-21T08:07:20.219Z,17.02
2023-05-21T08:08:20.305Z,14.72
2023-05-21T08:09:20.228Z,17.38
2023-05-21T08:10:20.228Z,16.38
2023-05-21T08:11:20.310Z,16.31
2023-05-21T08:12:20.229Z,15.96
2023-05-21T08:13:20.296Z,16.43
2023-05-21T08:14:20.240Z,16.87
2023-05-21T08:16:20.337Z,17.82
2023-05-21T08:17:20.325Z,17.25
2023-05-21T08:18:20.303Z,16.15
2023-05-21T08:19:20.364Z,17.84
2023-05-21T08:20:20.261Z,16.51
2023-05-21T08:21:20.315Z,16.14
2023-05-21T08:22:20.329Z,17.03
2023-05-21T08:23:20.300Z,15.35
2023-05-21T08:24:20.299Z,16.43
2023-05-21T08:25:20.268Z,15.66
2023-05-21T08:26:20.266Z,17.26
2023-05-21T08:27:20.301Z,15.98
2023-05-21T08:28:20.275Z,16.44
2023-05-21T08:29:20.272Z,16.89
2023-05-21T08:30:20.304Z,17.51
2023-05-21T08:31:20.384Z,16.78
2023-05-21T08:32:20.339Z,16.95
2023-05-21T08:33:21.474Z,16.46
2023-05-21T08:34:20.317Z,16.02
2023-05-21T08:35:20.287Z,15.71
2023-05-21T08:36:20.297Z,16.09
2023-05-21T08:37:20.335Z,16.55
2023-05-21T08:38:20.337Z,16.04
2023-05-21T08:39:20.305Z,15.20
2023-05-21T08:40:20.336Z,16.42
2023-05-21T08:41:20.339Z,15.87
2023-05-21T08:42:32.967Z,16.14
2023-05-21T08:43:20.388Z,17.22
2023-05-21T08:44:20.358Z,14.71
2023-05-21T08:45:20.372Z,14.75
2023-05-21T08:46:20.412Z,14.94
2023-05-21T08:47:20.339Z,15.23
2023-05-21T08:48:20.355Z,15.40
2023-05-21T08:49:20.336Z,14.13
2023-05-21T08:50:20.388Z,15.19
2023-05-21T08:51:20.344Z,14.22
2023-05-21T08:52:20.381Z,13.35
2023-05-21T08:53:28.050Z,13.92
2023-05-21T08:54:20.405Z,13.87
2023-05-21T08:56:20.382Z,13.40
2023-05-21T08:57:20.426Z,14.74
2023-05-21T08:58:20.414Z,14.06
2023-05-21T08:59:20.374Z,14.38
2023-05-21T09:00:20.452Z,13.01
2023-05-21T09:01:20.481Z,14.29
2023-05-21T09:02:20.373Z,14.95
2023-05-21T09:03:20.516Z,13.72
2023-05-21T09:04:21.625Z,13.38
2023-05-21T09:05:20.440Z,14.40
2023-05-21T09:06:20.466Z,13.49
2023-05-21T09:07:20.396Z,15.25
2023-05-21T09:08:20.429Z,14.80
2023-05-21T09:09:20.413Z,13.96
2023-05-21T09:10:20.493Z,13.91
2023-05-21T09:11:20.455Z,15.59
2023-05-21T09:12:20.378Z,13.12
2023-05-21T09:13:20.447Z,14.02
2023-05-21T09:14:20.476Z,14.38
2023-05-21T09:15:20.401Z,12.60
2023-05-21T09:16:20.457Z,13.03
2023-05-21T09:17:20.446Z,13.10
2023-05-21T09:18:20.437Z,14.13
2023-05-21T09:19:20.577Z,15.64
2023-05-21T09:20:20.494Z,15.02
2023-05-21T09:21:20.472Z,14.53
2023-05-21T09:22:20.432Z,13.99
2023-05-21T09:23:20.472Z,14.15
2023-05-21T09:24:20.476Z,13.32
2023-05-21T09:25:20.425Z,14.66
2023-05-21T09:26:20.450Z,13.62
2023-05-21T09:28:20.433Z,14.64
2023-05-21T09:29:20.489Z,15.01
2023-05-21T09:30:23.047Z,14.29
2023-05-21T09:31:20.510Z,13.63
2023-05-21T09:32:20.434Z,13.89
2023-05-21T09:33:20.489Z,13.89
2023-05-21T09:34:20.448Z,13.42
2023-05-21T09:35:20.522Z,13.56
2023-05-21T09:36:20.438Z,15.10
2023-05-21T09:38:20.488Z,14.35
2023-05-21T09:39:20.490Z,13.68
2023-05-21T09:40:20.484Z,14.67
2023-05-21T09:41:21.892Z,15.63
2023-05-21T09:42:20.492Z,16.01
2023-05-21T09:43:20.489Z,15.48
2023-05-21T09:44:20.475Z,14.45
2023-05-21T09:45:20.506Z,13.70
2023-05-21T09:46:20.522Z,14.52
2023-05-21T09:47:20.527Z,14.37
2023-05-21T09:48:20.476Z,14.42
2023-05-21T09:49:20.480Z,12.86
2023-05-21T09:50:20.503Z,13.66
2023-05-21T09:51:20.537Z,13.61
2023-05-21T09:52:20.520Z,14.43
2023-05-21T09:53:20.518Z,14.05
2023-05-21T09:54:20.486Z,13.28
2023-05-21T09:55:20.535Z,13.80
2023-05-21T09:56:20.556Z,12.46
2023-05-21T09:57:20.518Z,12.71
2023-05-21T09:58:20.537Z,13.66
2023-05-21T09:59:20.545Z,14.63
2023-05-21T10:00:20.580Z,13.68
2023-05-21T10:01:20.621Z,14.68
2023-05-21T10:02:20.559Z,14.14
2023-05-21T10:04:20.614Z,13.43
2023-05-21T10:05:20.516Z,13.15
2023-05-21T10:06:20.526Z,14.06
2023-05-21T10:07:20.554Z,12.69
2023-05-21T10:08:20.600Z,14.18
2023-05-21T10:09:20.593Z,14.08
2023-05-21T10:10:20.557Z,14.35
2023-05-21T10:11:20.572Z,14.21
2023-05-21T10:12:20.578Z,15.82
2023-05-21T10:13:20.570Z,14.30
2023-05-21T10:14:20.631Z,14.88
2023-05-21T10:15:20.567Z,17.34
2023-05-21T10:16:20.601Z,14.19
2023-05-21T10:17:20.665Z,14.49
2023-05-21T10:18:20.576Z,14.47
2023-05-21T10:19:20.576Z,14.49
2023-05-21T10:20:20.589Z,13.73
2023-05-21T10:21:20.598Z,12.58
2023-05-21T10:22:20.569Z,13.11
2023-05-21T10:23:20.575Z,12.73
2023-05-21T10:24:20.611Z,13.90
2023-05-21T10:25:20.643Z,14.10
2023-05-21T10:26:20.606Z,13.26
2023-05-21T10:27:20.621Z,11.40
2023-05-21T10:28:20.594Z,11.26
2023-05-21T10:29:20.586Z,12.53
2023-05-21T10:30:20.638Z,10.53
2023-05-21T10:31:20.662Z,11.54
2023-05-21T10:32:20.686Z,11.52
2023-05-21T10:33:20.632Z,11.50
2023-05-21T10:34:20.623Z,11.55
2023-05-21T10:35:20.670Z,9.91
2023-05-21T10:36:20.639Z,10.91
2023-05-21T10:37:20.648Z,11.67
2023-05-21T10:38:20.685Z,10.13
2023-05-21T10:39:20.690Z,10.21
2023-05-21T10:40:20.618Z,10.82
2023-05-21T10:41:20.636Z,9.82
2023-05-21T10:42:20.662Z,9.85
2023-05-21T10:43:20.652Z,11.02
2023-05-21T10:44:20.679Z,10.48
2023-05-21T10:45:20.653Z,11.33
2023-05-21T10:46:20.671Z,10.89
2023-05-21T10:47:20.677Z,11.16
2023-05-21T10:48:20.713Z,12.52
2023-05-21T10:49:20.639Z,12.13
2023-05-21T10:50:20.694Z,12.22
2023-05-21T10:51:20.684Z,10.90
2023-05-21T10:52:20.694Z,10.85
2023-05-21T10:53:20.660Z,10.76
2023-05-21T10:54:20.657Z,9.73
2023-05-21T10:55:20.673Z,11.05
2023-05-21T10:56:20.714Z,11.83
2023-05-21T10:57:20.686Z,10.25
2023-05-21T10:58:20.728Z,10.47
2023-05-21T10:59:20.710Z,11.06
2023-05-21T11:00:20.701Z,9.63
2023-05-21T11:01:20.778Z,11.11
2023-05-21T11:02:20.823Z,11.52
2023-05-21T11:03:20.864Z,12.53
2023-05-21T11:04:20.757Z,10.40
2023-05-21T11:05:20.682Z,10.69
2023-05-21T11:06:20.740Z,10.92
2023-05-21T11:07:20.725Z,12.22
2023-05-21T11:08:20.740Z,13.00
2023-05-21T11:09:20.689Z,12.25
2023-05-21T11:10:20.713Z,11.85
2023-05-21T11:11:20.767Z,11.57
2023-05-21T11:12:20.755Z,11.92
2023-05-21T11:13:20.738Z,10.48
2023-05-21T11:14:20.948Z,12.79
2023-05-21T11:15:20.709Z,12.59
2023-05-21T11:16:20.746Z,12.66
2023-05-21T11:17:20.770Z,11.94
2023-05-21T11:18:20.711Z,14.23
2023-05-21T11:20:20.749Z,13.02
2023-05-21T11:21:20.779Z,13.37
2023-05-21T11:22:20.796Z,12.35
2023-05-21T11:23:20.747Z,11.44
2023-05-21T11:24:20.772Z,12.13
2023-05-21T11:25:20.781Z,12.55
2023-05-21T11:26:20.802Z,13.22
2023-05-21T11:27:20.777Z,14.04
2023-05-21T11:28:20.733Z,13.55
2023-05-21T11:29:20.728Z,13.33
2023-05-21T11:30:20.771Z,14.42
2023-05-21T11:31:20.781Z,13.11
2023-05-21T11:32:20.812Z,12.20
2023-05-21T11:33:20.847Z,13.22
2023-05-21T11:34:20.759Z,13.75
2023-05-21T11:35:20.800Z,12.71
2023-05-21T11:36:20.784Z,13.13
2023-05-21T11:37:20.887Z,11.49
2023-05-21T11:38:20.832Z,12.49
2023-05-21T11:39:20.783Z,11.43
2023-05-21T11:41:20.776Z,12.01
2023-05-21T11:42:20.810Z,12.22
2023-05-21T11:43:20.819Z,12.44
2023-05-21T11:44:20.812Z,10.95
2023-05-21T11:45:20.838Z,10.51
2023-05-21T11:46:20.899Z,11.48
2023-05-21T11:47:20.889Z,10.79
2023-05-21T11:48:20.832Z,11.20
2023-05-21T11:49:20.792Z,10.30
2023-05-21T11:50:20.900Z,10.76
2023-05-21T11:51:20.883Z,10.09
2023-05-21T11:52:20.820Z,10.12
2023-05-21T11:53:20.870Z,10.12
2023-05-21T11:54:20.818Z,10.01
2023-05-21T11:55:20.850Z,9.55
2023-05-21T11:56:20.903Z,10.48
2023-05-21T11:57:20.811Z,10.95
2023-05-21T11:58:20.889Z,11.22
2023-05-21T11:59:20.846Z,10.75
2023-05-21T12:00:20.860Z,10.78
2023-05-21T12:01:20.845Z,9.74
2023-05-21T12:02:21.032Z,10.53
2023-05-21T12:03:20.936Z,10.63
2023-05-21T12:04:20.888Z,11.45
2023-05-21T12:05:20.870Z,12.54
2023-05-21T12:06:20.935Z,10.89
2023-05-21T12:07:20.935Z,10.80
2023-05-21T12:08:20.902Z,11.10
2023-05-21T12:09:20.920Z,11.58
2023-05-21T12:10:20.903Z,11.34
2023-05-21T12:11:20.876Z,11.97
2023-05-21T12:13:20.907Z,12.49
2023-05-21T12:14:21.001Z,13.13
2023-05-21T12:15:20.884Z,12.47
2023-05-21T12:16:20.982Z,12.60
2023-05-21T12:17:20.937Z,12.46
2023-05-21T12:18:20.873Z,10.93
2023-05-21T12:19:21.100Z,11.09
2023-05-21T12:20:21.112Z,11.22
2023-05-21T12:21:20.950Z,11.21
2023-05-21T12:22:20.989Z,10.96
2023-05-21T12:23:20.930Z,10.72
2023-05-21T12:24:20.939Z,10.26
2023-05-21T12:25:21.251Z,11.55
2023-05-21T12:27:20.972Z,12.77
2023-05-21T12:28:20.960Z,11.75
2023-05-21T12:29:20.939Z,10.59
2023-05-21T12:30:20.985Z,11.43
2023-05-21T12:31:20.983Z,11.01
2023-05-21T12:32:21.075Z,11.04
2023-05-21T12:33:23.077Z,10.29
2023-05-21T12:34:20.937Z,10.66
2023-05-21T12:35:21.050Z,11.12
2023-05-21T12:36:20.964Z,10.89
2023-05-21T12:37:20.947Z,9.62
2023-05-21T12:38:20.930Z,10.59
2023-05-21T12:39:20.945Z,10.55
2023-05-21T12:40:21.166Z,10.80
2023-05-21T12:41:21.042Z,10.10
2023-05-21T12:42:20.967Z,9.94
2023-05-21T12:44:20.969Z,9.92
2023-05-21T12:45:21.105Z,10.73
2023-05-21T12:46:21.131Z,9.18
2023-05-21T12:47:21.005Z,9.49
2023-05-21T12:48:21.027Z,8.89
2023-05-21T12:49:20.984Z,10.33
2023-05-21T12:50:21.090Z,10.47
2023-05-21T12:51:21.036Z,10.24
2023-05-21T12:52:20.997Z,10.20
2023-05-21T12:53:21.034Z,9.68
2023-05-21T12:54:21.022Z,9.86
2023-05-21T12:55:21.069Z,8.69
2023-05-21T12:56:21.014Z,9.18
2023-05-21T12:57:21.111Z,9.35
2023-05-21T12:58:21.046Z,7.62
2023-05-21T12:59:21.024Z,7.69
2023-05-21T13:00:21.026Z,8.54
2023-05-21T13:01:21.027Z,9.30
2023-05-21T13:02:21.040Z,8.73
2023-05-21T13:03:21.312Z,8.26
2023-05-21T13:05:21.008Z,8.03
2023-05-21T13:06:21.048Z,7.58
2023-05-21T13:07:21.070Z,7.54
2023-05-21T13:08:21.071Z,8.06
2023-05-21T13:09:21.053Z,7.95
2023-05-21T13:10:21.044Z,7.50
2023-05-21T13:11:21.082Z,8.76
2023-05-21T13:12:21.104Z,7.99
2023-05-21T13:13:21.083Z,8.18
2023-05-21T13:14:21.104Z,7.43
2023-05-21T13:15:21.108Z,7.85
2023-05-21T13:16:21.183Z,8.80
2023-05-21T13:17:21.086Z,7.99
2023-05-21T13:18:21.187Z,8.10
2023-05-21T13:19:21.168Z,7.20
2023-05-21T13:20:21.144Z,7.49
2023-05-21T13:21:21.130Z,6.74
2023-05-21T13:22:21.107Z,6.59
2023-05-21T13:23:21.122Z,6.38
2023-05-21T13:24:21.146Z,6.26
2023-05-21T13:25:21.252Z,6.45
2023-05-21T13:26:21.185Z,6.20
2023-05-21T13:27:21.183Z,6.31
2023-05-21T13:28:21.192Z,5.87
2023-05-21T13:29:21.158Z,4.81
2023-05-21T13:30:21.143Z,5.24
2023-05-21T13:31:21.181Z,5.41
2023-05-21T13:32:21.220Z,5.47
2023-05-21T13:33:21.258Z,5.01
2023-05-21T13:34:21.138Z,5.52
2023-05-21T13:36:21.152Z,6.09
2023-05-21T13:37:21.222Z,5.40
2023-05-21T13:38:21.163Z,4.43
2023-05-21T13:39:21.174Z,4.38
2023-05-21T13:40:21.190Z,3.73
2023-05-21T13:41:21.147Z,5.00
2023-05-21T13:42:21.248Z,4.26
2023-05-21T13:43:21.198Z,4.79
2023-05-21T13:44:21.170Z,4.08
2023-05-21T13:45:21.315Z,4.41
2023-05-21T13:46:21.266Z,4.14
2023-05-21T13:47:21.236Z,4.92
2023-05-21T13:48:21.299Z,5.02
2023-05-21T13:49:21.201Z,4.77
2023-05-21T13:50:21.187Z,6.10
2023-05-21T13:51:37.590Z,6.06
2023-05-21T13:52:21.249Z,6.46
2023-05-21T13:53:21.237Z,6.23
2023-05-21T13:54:21.216Z,6.64
2023-05-21T13:55:21.206Z,6.34
2023-05-21T13:56:21.186Z,6.43
2023-05-21T13:57:21.196Z,6.82
2023-05-21T13:58:21.188Z,6.72
2023-05-21T13:59:21.221Z,6.03
2023-05-21T14:00:21.257Z,7.00
2023-05-21T14:01:21.266Z,5.63
2023-05-21T14:02:21.420Z,6.25
2023-05-21T14:05:21.283Z,5.39
2023-05-21T14:06:21.261Z,5.07